Time;durP1;ratioP1;P1;durP2;ratioP2;P2;SDS_P1;SDS_P2;PMS_P1;PMS_P2;Temp;Humidity;BMP_temperature;BMP_pressure;BME280_temperature;BME280_humidity;BME280_pressure;Samples;Min_cycle;Max_cycle;Signal;HPM_P1;HPM_P2
2023/06/21 00:00:17;;;;;;;20.70;18.60;;;27.50;46.00;;;;;;5074735;28;20189;-55
2023/06/21 00:02:43;;;;;;;19.73;18.03;;;27.50;45.90;;;;;;5074832;28;20410;-54
2023/06/21 00:05:09;;;;;;;22.33;20.33;;;27.50;46.10;;;;;;5073286;28;20497;-55
2023/06/21 00:07:37;;;;;;;20.80;19.00;;;27.50;46.20;;;;;;5074632;28;20403;-56
2023/06/21 00:10:03;;;;;;;20.80;19.10;;;27.50;46.20;;;;;;5074087;28;20426;-54
2023/06/21 00:12:28;;;;;;;21.00;19.20;;;27.50;46.40;;;;;;5074367;28;20418;-56
2023/06/21 00:14:54;;;;;;;20.57;18.77;;;27.50;46.50;;;;;;5074644;28;20816;-55
2023/06/21 00:17:20;;;;;;;19.87;17.97;;;27.50;46.60;;;;;;5073780;28;20202;-54
2023/06/21 00:19:47;;;;;;;21.20;19.40;;;27.50;46.70;;;;;;5073782;28;20232;-54
2023/06/21 00:22:14;;;;;;;19.50;17.50;;;27.50;46.70;;;;;;5074243;28;20406;-54
2023/06/21 00:24:40;;;;;;;22.40;20.50;;;27.50;46.60;;;;;;5074029;28;20180;-57
2023/06/21 00:27:05;;;;;;;21.47;19.50;;;27.50;46.60;;;;;;5074409;28;20406;-54
2023/06/21 00:29:31;;;;;;;19.47;17.73;;;27.50;47.30;;;;;;5073987;28;20196;-54
2023/06/21 00:31:58;;;;;;;19.67;17.97;;;27.50;46.70;;;;;;5074046;28;20653;-56
2023/06/21 00:34:23;;;;;;;22.27;20.27;;;27.50;46.80;;;;;;5074065;28;20609;-53
2023/06/21 00:36:50;;;;;;;20.97;19.17;;;27.40;47.00;;;;;;5074298;28;20434;-57
2023/06/21 00:39:16;;;;;;;20.73;18.90;;;27.40;47.10;;;;;;5073713;28;20196;-57
2023/06/21 00:41:42;;;;;;;20.13;18.33;;;27.40;47.10;;;;;;5074227;28;20418;-54
2023/06/21 00:44:08;;;;;;;22.17;20.20;;;27.40;47.30;;;;;;5073879;28;20169;-54
2023/06/21 00:46:34;;;;;;;20.17;18.20;;;27.40;47.20;;;;;;5073772;28;20507;-57
2023/06/21 00:49:00;;;;;;;22.40;20.40;;;27.40;47.80;;;;;;5073784;28;20431;-56
2023/06/21 00:51:26;;;;;;;21.30;19.40;;;27.30;47.80;;;;;;5073772;28;20410;-55
2023/06/21 00:53:52;;;;;;;21.97;20.07;;;27.20;48.10;;;;;;5073588;28;20527;-54
2023/06/21 00:56:17;;;;;;;24.00;21.47;;;27.20;48.60;;;;;;5073625;28;20441;-56
2023/06/21 00:58:44;;;;;;;26.17;23.50;;;27.10;49.20;;;;;;5073893;28;20283;-55
2023/06/21 01:01:09;;;;;;;28.37;23.80;;;27.10;49.60;;;;;;5073263;28;20630;-54
2023/06/21 01:03:36;;;;;;;26.03;22.97;;;27.10;49.90;;;;;;5073553;28;20418;-57
2023/06/21 01:06:31;;;;;;;25.87;23.07;;;27.10;50.00;;;;;;5072048;28;20239;-54
2023/06/21 01:09:09;;;;;;;24.90;22.60;;;27.00;50.80;;;;;;5073552;28;20435;-54
2023/06/21 01:12:00;;;;;;;25.33;22.83;;;26.90;50.40;;;;;;5073577;28;20383;-54
2023/06/21 01:14:50;;;;;;;22.90;20.73;;;26.80;51.80;;;;;;5073229;28;20403;-53
2023/06/21 01:17:19;;;;;;;22.90;20.57;;;26.70;51.90;;;;;;5072147;28;20422;-55
2023/06/21 01:19:50;;;;;;;24.80;22.40;;;26.70;51.70;;;;;;5072917;28;20438;-55
2023/06/21 01:22:42;;;;;;;23.10;20.80;;;26.60;52.20;;;;;;5073074;28;20414;-55
2023/06/21 01:25:52;;;;;;;24.07;21.70;;;26.70;54.00;;;;;;5072411;28;20505;-55
2023/06/21 01:28:33;;;;;;;22.87;20.77;;;26.60;52.90;;;;;;5072626;28;20529;-55
2023/06/21 01:31:01;;;;;;;22.17;20.07;;;26.50;52.60;;;;;;5072450;28;20819;-57
2023/06/21 01:33:28;;;;;;;23.43;21.27;;;26.60;52.70;;;;;;5072881;28;20414;-56
2023/06/21 01:35:55;;;;;;;23.13;20.77;;;26.60;52.90;;;;;;5073106;28;20410;-54
2023/06/21 01:38:21;;;;;;;25.20;22.20;;;26.60;52.50;;;;;;5072695;28;20488;-54
2023/06/21 01:40:47;;;;;;;23.47;21.20;;;26.60;52.90;;;;;;5072607;28;20460;-57
2023/06/21 01:43:14;;;;;;;23.17;20.77;;;26.70;52.80;;;;;;5072823;28;20411;-56
2023/06/21 01:45:40;;;;;;;21.03;19.00;;;26.70;52.70;;;;;;5072493;28;20192;-53
2023/06/21 01:48:07;;;;;;;17.73;16.23;;;26.70;52.70;;;;;;5071853;28;20485;-56
2023/06/21 01:50:34;;;;;;;19.20;17.50;;;26.70;52.10;;;;;;5072143;28;20903;-56
2023/06/21 01:53:01;;;;;;;17.90;16.20;;;26.80;52.00;;;;;;5072475;28;20429;-54
2023/06/21 01:55:28;;;;;;;18.10;16.43;;;26.80;52.30;;;;;;5072682;28;20853;-57
2023/06/21 01:57:56;;;;;;;17.63;15.93;;;26.80;52.20;;;;;;5072692;28;20411;-57
2023/06/21 02:00:22;;;;;;;15.80;14.20;;;26.90;51.80;;;;;;5072120;28;20415;-55
2023/06/21 02:02:55;;;;;;;16.47;14.80;;;26.80;51.90;;;;;;5072653;28;20419;-57
2023/06/21 02:05:21;;;;;;;15.33;13.70;;;26.80;52.40;;;;;;5072481;28;20434;-54
2023/06/21 02:07:48;;;;;;;11.40;10.40;;;26.80;51.60;;;;;;5071101;28;20806;-54
2023/06/21 02:10:18;;;;;;;13.57;11.30;;;26.90;50.60;;;;;;5071959;28;20779;-56
2023/06/21 02:12:50;;;;;;;14.57;12.87;;;26.80;51.20;;;;;;5072287;28;20563;-56
2023/06/21 02:15:16;;;;;;;12.70;11.17;;;26.80;51.40;;;;;;5072525;28;20426;-54
2023/06/21 02:17:49;;;;;;;14.30;12.90;;;26.80;51.60;;;;;;5072294;28;20443;-57
2023/06/21 02:20:19;;;;;;;14.53;12.53;;;25.80;51.30;;;;;;5072291;28;20425;-54
2023/06/21 02:22:46;;;;;;;12.97;11.73;;;26.70;51.90;;;;;;5072151;28;20401;-54
2023/06/21 02:25:14;;;;;;;13.77;12.40;;;26.70;51.70;;;;;;5070689;28;21056;-56
2023/06/21 02:27:40;;;;;;;13.17;11.00;;;26.70;51.80;;;;;;5072333;28;20406;-56
2023/06/21 02:30:08;;;;;;;13.53;11.00;;;26.70;51.70;;;;;;5070779;28;20429;-54
2023/06/21 02:32:34;;;;;;;10.70;9.70;;;26.70;51.50;;;;;;5072319;28;20403;-56
2023/06/21 02:35:00;;;;;;;11.47;10.27;;;26.70;51.30;;;;;;5072316;28;20475;-56
2023/06/21 02:37:29;;;;;;;14.50;9.20;;;26.70;51.10;;;;;;5072075;28;20493;-53
2023/06/21 02:39:58;;;;;;;9.67;8.80;;;26.80;51.40;;;;;;5071598;28;20430;-57
2023/06/21 02:42:27;;;;;;;10.60;9.60;;;26.70;51.30;;;;;;5071311;28;20779;-57
2023/06/21 02:44:53;;;;;;;9.93;8.70;;;26.70;51.30;;;;;;5071949;28;20415;-54
2023/06/21 02:47:18;;;;;;;11.33;9.60;;;26.70;51.40;;;;;;5072211;28;20422;-55
2023/06/21 02:49:44;;;;;;;11.50;10.37;;;26.70;51.30;;;;;;5071581;28;20189;-57
2023/06/21 02:52:10;;;;;;;11.33;10.27;;;26.60;51.50;;;;;;5071818;28;20263;-55
2023/06/21 02:54:36;;;;;;;10.73;9.53;;;26.60;51.50;;;;;;5071794;28;20176;-55
2023/06/21 02:57:01;;;;;;;10.50;9.50;;;26.60;51.60;;;;;;5072080;28;20177;-57
2023/06/21 02:59:30;;;;;;;10.73;9.73;;;26.60;51.60;;;;;;5071663;28;20250;-55
2023/06/21 03:01:56;;;;;;;10.60;9.60;;;26.60;51.50;;;;;;5071802;28;20176;-55
2023/06/21 03:04:21;;;;;;;11.00;9.90;;;26.60;51.60;;;;;;5072032;28;20460;-57
2023/06/21 03:06:47;;;;;;;11.63;10.43;;;26.50;51.80;;;;;;5071668;28;20453;-54
2023/06/21 03:09:13;;;;;;;10.67;9.60;;;26.50;51.80;;;;;;5071345;28;20661;-56
2023/06/21 03:11:39;;;;;;;10.97;8.87;;;26.50;51.80;;;;;;5071767;28;20407;-57
2023/06/21 03:14:04;;;;;;;10.37;9.37;;;26.50;51.90;;;;;;5070330;28;20196;-55
2023/06/21 03:16:30;;;;;;;10.80;9.73;;;26.40;51.80;;;;;;5071640;28;20406;-55
2023/06/21 03:18:56;;;;;;;11.63;10.40;;;26.40;52.00;;;;;;5071572;28;20192;-57
2023/06/21 03:21:22;;;;;;;10.27;9.37;;;26.50;52.00;;;;;;5071467;28;20184;-56
2023/06/21 03:23:49;;;;;;;9.90;8.90;;;26.40;51.80;;;;;;5071684;28;20246;-54
2023/06/21 03:26:15;;;;;;;9.83;8.90;;;26.40;51.80;;;;;;5071436;28;20458;-58
2023/06/21 03:28:43;;;;;;;9.43;8.50;;;26.40;51.90;;;;;;5071433;28;20787;-54
2023/06/21 03:31:09;;;;;;;12.30;7.73;;;26.30;52.30;;;;;;5071207;28;20407;-54
2023/06/21 03:33:35;;;;;;;9.77;8.90;;;26.30;52.30;;;;;;5071411;28;20502;-59
2023/06/21 03:36:00;;;;;;;10.97;9.87;;;26.30;52.60;;;;;;5070123;28;20177;-56
2023/06/21 03:38:26;;;;;;;8.90;8.10;;;26.30;52.20;;;;;;5071386;28;20948;-56
2023/06/21 03:40:52;;;;;;;12.70;9.07;;;26.40;52.10;;;;;;5071092;28;20176;-55
2023/06/21 03:43:17;;;;;;;9.50;8.43;;;26.40;52.20;;;;;;5071639;28;20181;-57
2023/06/21 03:45:43;;;;;;;9.07;7.80;;;26.30;52.50;;;;;;5071417;28;20192;-55
2023/06/21 03:48:09;;;;;;;9.97;9.00;;;26.30;52.30;;;;;;5071301;28;20280;-57
2023/06/21 03:50:35;;;;;;;11.60;8.60;;;26.30;52.30;;;;;;5071099;28;20251;-55
2023/06/21 03:53:01;;;;;;;13.70;9.90;;;26.30;52.30;;;;;;5071762;28;20219;-57
2023/06/21 03:55:26;;;;;;;9.90;9.00;;;26.30;53.10;;;;;;5074809;28;20411;-57
2023/06/21 03:57:52;;;;;;;14.30;10.00;;;26.40;52.30;;;;;;5074994;28;20309;-55
2023/06/21 04:00:18;;;;;;;10.03;8.73;;;26.40;52.50;;;;;;5073420;28;20180;-54
2023/06/21 04:02:44;;;;;;;10.30;9.30;;;26.40;52.40;;;;;;5074701;28;20579;-57
2023/06/21 04:05:10;;;;;;;11.60;8.63;;;26.30;52.50;;;;;;5074628;28;21015;-55
2023/06/21 04:07:37;;;;;;;12.60;9.60;;;26.30;52.80;;;;;;5074532;28;20467;-55
2023/06/21 04:10:03;;;;;;;9.03;8.20;;;26.30;52.90;;;;;;5074398;28;20419;-57
2023/06/21 04:12:30;;;;;;;13.23;9.73;;;26.30;52.70;;;;;;5074532;28;20445;-56
2023/06/21 04:14:57;;;;;;;10.50;8.60;;;26.30;52.90;;;;;;5074602;28;20442;-56
2023/06/21 04:17:23;;;;;;;11.17;10.07;;;26.30;52.90;;;;;;5074521;28;20464;-58
2023/06/21 04:19:49;;;;;;;10.47;9.03;;;26.30;53.10;;;;;;5074015;28;20435;-57
2023/06/21 04:22:14;;;;;;;12.60;11.37;;;26.30;53.30;;;;;;5074254;28;20949;-54
2023/06/21 04:24:40;;;;;;;12.80;10.37;;;26.30;53.40;;;;;;5074566;28;20486;-57
2023/06/21 04:27:06;;;;;;;11.60;10.10;;;26.30;53.70;;;;;;5074388;28;20683;-54
2023/06/21 04:29:36;;;;;;;12.80;9.03;;;26.30;54.10;;;;;;5074032;28;20196;-57
2023/06/21 04:32:03;;;;;;;9.60;8.60;;;26.30;53.50;;;;;;5074393;28;20177;-55
2023/06/21 04:34:29;;;;;;;11.83;10.60;;;26.40;53.50;;;;;;5074335;28;20415;-55
2023/06/21 04:36:54;;;;;;;10.57;9.57;;;26.40;53.50;;;;;;5074325;28;20754;-56
2023/06/21 04:39:21;;;;;;;11.93;10.73;;;26.60;53.40;;;;;;5073271;28;20665;-57
2023/06/21 04:41:47;;;;;;;14.00;8.60;;;26.60;53.30;;;;;;5073951;28;20185;-55
2023/06/21 04:44:17;;;;;;;15.77;10.27;;;26.70;52.40;;;;;;5073930;28;20765;-56
2023/06/21 04:46:46;;;;;;;13.33;9.87;;;26.80;52.70;;;;;;5073710;28;20462;-57
2023/06/21 04:49:12;;;;;;;11.43;10.33;;;26.90;52.50;;;;;;5064081;28;20443;-55
2023/06/21 04:51:37;;;;;;;11.40;9.13;;;27.00;52.90;;;;;;5074020;28;20418;-57
2023/06/21 04:54:03;;;;;;;12.20;8.50;;;27.00;51.90;;;;;;5074002;28;20652;-57
2023/06/21 04:56:29;;;;;;;9.77;8.37;;;27.10;51.30;;;;;;5073728;28;20183;-55
2023/06/21 04:58:55;;;;;;;10.23;9.23;;;27.20;51.10;;;;;;5072797;28;20223;-55
2023/06/21 05:01:21;;;;;;;10.20;9.30;;;27.20;51.80;;;;;;5073400;28;20418;-57
2023/06/21 05:03:48;;;;;;;13.20;9.50;;;27.40;50.70;;;;;;5073020;28;20418;-54
2023/06/21 05:06:20;;;;;;;11.20;9.57;;;27.50;50.30;;;;;;5073407;28;20204;-54
2023/06/21 05:08:46;;;;;;;9.00;8.20;;;27.50;50.10;;;;;;5073573;28;20500;-57
2023/06/21 05:11:12;;;;;;;9.50;8.60;;;27.60;49.80;;;;;;5073154;28;21044;-54
2023/06/21 05:13:37;;;;;;;9.83;8.77;;;27.70;49.40;;;;;;5073298;28;20434;-55
2023/06/21 05:16:03;;;;;;;9.90;7.70;;;27.70;49.70;;;;;;5073257;28;20414;-55
2023/06/21 05:18:29;;;;;;;10.27;8.27;;;27.80;49.50;;;;;;5073185;28;20235;-57
2023/06/21 05:20:55;;;;;;;8.03;7.23;;;27.90;49.40;;;;;;5073124;28;20172;-54
2023/06/21 05:23:21;;;;;;;7.87;7.10;;;27.90;49.00;;;;;;5073070;28;20180;-54
2023/06/21 05:25:47;;;;;;;9.23;7.20;;;28.10;49.20;;;;;;5073287;28;20489;-55
2023/06/21 05:28:13;;;;;;;8.53;7.47;;;28.10;49.20;;;;;;5072999;28;20950;-56
2023/06/21 05:30:38;;;;;;;6.37;5.77;;;28.20;48.80;;;;;;5073013;28;20533;-57
2023/06/21 05:33:04;;;;;;;6.40;5.60;;;28.30;48.50;;;;;;5073189;28;20257;-56
2023/06/21 05:35:30;;;;;;;7.70;5.73;;;28.40;47.30;;;;;;5072920;28;20180;-55
2023/06/21 05:37:56;;;;;;;10.60;6.17;;;28.40;46.70;;;;;;5072815;28;20181;-57
2023/06/21 05:40:23;;;;;;;11.40;6.33;;;28.50;45.10;;;;;;5071262;28;20176;-54
2023/06/21 05:42:48;;;;;;;6.07;5.40;;;28.40;45.40;;;;;;5073085;28;20185;-58
2023/06/21 05:45:15;;;;;;;9.43;6.37;;;28.50;46.50;;;;;;5072539;28;21172;-56
2023/06/21 05:47:41;;;;;;;11.37;7.20;;;28.70;46.20;;;;;;5072912;28;20177;-55
2023/06/21 05:50:07;;;;;;;7.00;6.30;;;28.80;45.80;;;;;;5071582;28;20426;-57
2023/06/21 05:52:33;;;;;;;9.60;6.70;;;28.90;45.50;;;;;;5072627;28;20307;-54
2023/06/21 05:54:59;;;;;;;8.63;6.43;;;28.90;45.10;;;;;;5071238;28;20438;-56
2023/06/21 05:57:26;;;;;;;7.13;5.80;;;29.00;45.20;;;;;;5072910;28;20647;-58
2023/06/21 05:59:52;;;;;;;8.67;6.37;;;29.00;44.40;;;;;;5072349;28;20279;-56
2023/06/21 06:02:18;;;;;;;5.73;5.13;;;29.00;44.10;;;;;;5072388;28;20933;-55
2023/06/21 06:04:44;;;;;;;9.37;6.37;;;29.00;44.40;;;;;;5072382;28;20407;-57
2023/06/21 06:07:12;;;;;;;7.67;6.20;;;29.10;44.10;;;;;;5072585;28;20210;-55
2023/06/21 06:09:38;;;;;;;7.47;5.93;;;29.10;44.20;;;;;;5072281;28;20196;-54
2023/06/21 06:12:04;;;;;;;11.20;6.50;;;29.20;44.20;;;;;;5072139;28;20481;-57
2023/06/21 06:14:31;;;;;;;7.40;6.33;;;29.20;44.00;;;;;;5072229;28;20251;-54
2023/06/21 06:16:57;;;;;;;6.53;5.80;;;29.30;43.70;;;;;;5071707;28;20464;-55
2023/06/21 06:19:23;;;;;;;8.50;5.90;;;29.40;43.50;;;;;;5072243;28;20949;-56
2023/06/21 06:21:48;;;;;;;7.30;6.10;;;29.50;41.90;;;;;;5072336;28;20407;-55
2023/06/21 06:24:14;;;;;;;7.57;6.77;;;29.50;42.80;;;;;;5072090;28;20219;-55
2023/06/21 06:26:40;;;;;;;10.07;6.70;;;29.50;42.80;;;;;;5072088;28;20196;-57
2023/06/21 06:29:06;;;;;;;8.87;6.40;;;29.60;42.60;;;;;;5071937;28;20192;-54
2023/06/21 06:31:31;;;;;;;10.17;7.37;;;29.70;41.60;;;;;;5072141;28;20225;-57
2023/06/21 06:33:57;;;;;;;7.97;7.17;;;29.70;42.30;;;;;;5072031;28;20537;-54
2023/06/21 06:36:23;;;;;;;7.87;7.07;;;29.70;40.90;;;;;;5070767;28;20457;-55
2023/06/21 06:38:49;;;;;;;6.60;5.90;;;29.80;41.50;;;;;;5071940;28;20196;-57
2023/06/21 06:41:17;;;;;;;9.20;8.33;;;29.80;42.80;;;;;;5072004;28;20176;-54
2023/06/21 06:43:43;;;;;;;8.93;6.57;;;29.90;41.70;;;;;;5071912;28;20756;-54
2023/06/21 06:46:09;;;;;;;11.20;7.77;;;29.90;41.70;;;;;;5071881;28;20461;-57
2023/06/21 06:48:35;;;;;;;11.63;7.77;;;30.00;41.00;;;;;;5070659;28;20426;-56
2023/06/21 06:51:01;;;;;;;8.27;7.47;;;30.10;40.40;;;;;;5071727;28;20905;-54
2023/06/21 06:53:27;;;;;;;8.07;7.03;;;30.10;40.30;;;;;;5071967;28;20211;-54
2023/06/21 06:55:54;;;;;;;11.83;7.50;;;30.20;40.00;;;;;;5071828;28;20180;-56
2023/06/21 06:58:21;;;;;;;8.10;6.83;;;30.20;41.00;;;;;;5071663;28;20981;-54
2023/06/21 07:00:48;;;;;;;9.67;7.57;;;30.20;40.80;;;;;;5071571;28;20416;-55
2023/06/21 07:03:13;;;;;;;8.30;7.37;;;30.30;40.20;;;;;;5071910;28;20488;-57
2023/06/21 07:05:46;;;;;;;7.50;6.70;;;30.30;40.00;;;;;;5071692;28;20936;-54
2023/06/21 07:08:12;;;;;;;8.43;7.23;;;30.40;39.70;;;;;;5071940;28;20284;-54
2023/06/21 07:10:39;;;;;;;6.93;6.33;;;30.40;40.80;;;;;;5071450;28;20486;-55
2023/06/21 07:13:05;;;;;;;7.90;6.50;;;30.50;40.60;;;;;;5071564;28;21052;-54
2023/06/21 07:15:31;;;;;;;9.20;7.47;;;30.60;40.60;;;;;;5071801;28;20776;-57
2023/06/21 07:17:57;;;;;;;9.57;7.30;;;30.70;39.60;;;;;;5071618;28;20961;-55
2023/06/21 07:20:23;;;;;;;7.87;7.03;;;30.70;38.90;;;;;;5071337;28;20418;-54
2023/06/21 07:22:49;;;;;;;8.30;7.50;;;30.80;39.00;;;;;;5071540;28;20177;-56
2023/06/21 07:25:15;;;;;;;7.10;6.40;;;30.80;39.30;;;;;;5071420;28;20203;-54
2023/06/21 07:27:41;;;;;;;9.90;8.10;;;30.90;38.80;;;;;;5073234;28;20201;-56
2023/06/21 07:30:08;;;;;;;8.30;7.33;;;30.90;38.90;;;;;;5075088;28;20402;-54
2023/06/21 07:32:33;;;;;;;9.10;8.20;;;31.00;39.10;;;;;;5075200;28;20934;-54
2023/06/21 07:35:00;;;;;;;7.57;6.70;;;31.00;38.90;;;;;;5075225;28;20410;-57
2023/06/21 07:37:30;;;;;;;7.30;6.70;;;31.10;38.30;;;;;;5075087;28;20191;-54
2023/06/21 07:39:57;;;;;;;9.73;6.67;;;31.10;38.10;;;;;;5074990;28;20442;-54
2023/06/21 07:42:23;;;;;;;11.70;7.50;;;31.20;38.00;;;;;;5075095;28;20771;-57
2023/06/21 07:44:55;;;;;;;7.80;6.90;;;31.20;38.40;;;;;;5075302;28;20490;-54
2023/06/21 07:47:22;;;;;;;7.30;6.60;;;31.20;38.00;;;;;;5075028;28;20963;-55
2023/06/21 07:49:48;;;;;;;7.70;7.00;;;31.30;37.80;;;;;;5074805;28;20450;-54
2023/06/21 07:52:14;;;;;;;8.03;6.90;;;31.30;38.10;;;;;;5074844;28;20505;-56
2023/06/21 07:54:42;;;;;;;9.03;7.03;;;31.40;37.90;;;;;;5074782;28;20446;-55
2023/06/21 07:57:08;;;;;;;7.60;6.80;;;31.50;38.10;;;;;;5074789;28;20407;-57
2023/06/21 07:59:34;;;;;;;8.63;7.60;;;31.60;38.10;;;;;;5074647;28;20437;-57
2023/06/21 08:02:00;;;;;;;8.97;7.87;;;31.70;37.50;;;;;;5074694;28;20976;-55
2023/06/21 08:04:26;;;;;;;8.83;6.73;;;31.70;37.40;;;;;;5074732;28;20176;-55
2023/06/21 08:06:51;;;;;;;9.80;7.23;;;31.70;37.70;;;;;;5074554;28;20212;-56
2023/06/21 08:09:17;;;;;;;10.30;7.50;;;31.80;37.20;;;;;;5074288;28;20192;-54
2023/06/21 08:11:43;;;;;;;8.77;7.97;;;31.90;38.10;;;;;;5074752;28;20199;-56
2023/06/21 08:14:08;;;;;;;9.60;7.73;;;31.90;38.20;;;;;;5074443;28;20240;-56
2023/06/21 08:16:34;;;;;;;7.77;6.90;;;32.00;38.00;;;;;;5074635;28;20616;-54
2023/06/21 08:19:00;;;;;;;8.23;7.13;;;32.00;37.30;;;;;;5074616;28;20606;-54
2023/06/21 08:21:25;;;;;;;10.37;6.87;;;32.00;38.20;;;;;;5074134;28;20222;-57
2023/06/21 08:23:52;;;;;;;8.53;7.73;;;32.10;38.50;;;;;;5074284;28;20169;-57
2023/06/21 08:26:18;;;;;;;12.00;7.73;;;32.20;36.80;;;;;;5072912;28;20202;-54
2023/06/21 08:28:45;;;;;;;13.80;6.80;;;32.20;37.50;;;;;;5074220;28;20779;-54
2023/06/21 08:31:11;;;;;;;7.57;6.90;;;32.20;37.20;;;;;;5074142;28;20177;-55
2023/06/21 08:33:37;;;;;;;8.67;7.20;;;32.30;36.40;;;;;;5074518;28;20418;-55
2023/06/21 08:36:06;;;;;;;8.40;7.30;;;32.40;37.10;;;;;;5074341;28;20933;-55
2023/06/21 08:38:32;;;;;;;9.87;7.17;;;32.50;39.20;;;;;;5073279;28;20197;-55
2023/06/21 08:41:02;;;;;;;8.30;7.53;;;32.60;36.40;;;;;;5073930;28;20418;-56
2023/06/21 08:43:28;;;;;;;8.43;7.60;;;32.70;36.10;;;;;;5073945;28;20489;-54
2023/06/21 08:45:55;;;;;;;8.77;7.40;;;32.70;37.10;;;;;;5073884;28;20875;-57
2023/06/21 08:48:22;;;;;;;9.37;8.47;;;32.80;36.90;;;;;;5074069;28;20431;-54
2023/06/21 08:50:50;;;;;;;9.97;8.97;;;32.80;36.40;;;;;;5073473;28;20407;-54
2023/06/21 08:53:27;;;;;;;8.27;7.50;;;32.80;36.60;;;;;;5073771;28;20922;-54
2023/06/21 08:55:53;;;;;;;10.03;7.60;;;32.90;36.40;;;;;;5073750;28;20843;-56
2023/06/21 08:58:25;;;;;;;8.87;7.97;;;33.00;37.10;;;;;;5073560;28;20469;-55
2023/06/21 09:00:53;;;;;;;8.47;7.63;;;33.00;35.80;;;;;;5073380;28;20422;-57
2023/06/21 09:03:36;;;;;;;8.70;7.90;;;33.00;36.40;;;;;;5073567;28;20506;-54
2023/06/21 09:06:15;;;;;;;10.40;8.00;;;33.10;37.10;;;;;;5073495;28;20435;-56
2023/06/21 09:08:42;;;;;;;12.33;8.30;;;33.10;36.90;;;;;;5073464;28;20445;-54
2023/06/21 09:11:09;;;;;;;17.70;8.73;;;33.10;36.60;;;;;;5073261;28;20775;-55
2023/06/21 09:13:37;;;;;;;10.83;8.47;;;33.20;36.90;;;;;;5073285;28;20458;-57
2023/06/21 09:16:03;;;;;;;8.77;7.87;;;33.30;37.10;;;;;;5073597;28;20548;-53
2023/06/21 09:18:35;;;;;;;9.00;8.07;;;33.40;36.30;;;;;;5073094;28;20441;-56
2023/06/21 09:21:02;;;;;;;8.40;7.60;;;33.40;36.60;;;;;;5073059;28;20411;-56
2023/06/21 09:23:29;;;;;;;9.50;8.60;;;33.50;36.60;;;;;;5073156;28;20407;-54
2023/06/21 09:25:58;;;;;;;9.87;8.90;;;33.50;36.90;;;;;;5073336;28;20446;-54
2023/06/21 09:28:24;;;;;;;9.57;8.47;;;33.60;36.60;;;;;;5073029;28;20450;-56
2023/06/21 09:30:50;;;;;;;8.23;7.23;;;33.60;35.90;;;;;;5072813;28;20403;-54
2023/06/21 09:33:16;;;;;;;10.60;9.27;;;33.70;36.60;;;;;;5073283;28;20774;-57
2023/06/21 09:35:43;;;;;;;9.67;8.67;;;33.80;35.30;;;;;;5073271;28;20748;-56
2023/06/21 09:38:26;;;;;;;9.67;7.93;;;33.80;36.60;;;;;;5073159;28;20430;-54
2023/06/21 09:40:52;;;;;;;9.93;8.93;;;33.90;36.10;;;;;;5072478;28;20406;-57
2023/06/21 09:43:21;;;;;;;9.07;8.27;;;33.90;35.80;;;;;;5073117;28;20407;-54
2023/06/21 09:46:03;;;;;;;9.80;7.60;;;34.00;36.10;;;;;;5072887;28;20455;-56
2023/06/21 09:48:34;;;;;;;8.73;7.90;;;34.00;35.70;;;;;;5072527;28;20448;-53
2023/06/21 09:51:04;;;;;;;8.60;7.83;;;34.00;36.00;;;;;;5072358;28;20907;-58
2023/06/21 09:53:31;;;;;;;10.87;7.00;;;34.10;34.90;;;;;;5072605;28;20419;-55
2023/06/21 09:55:57;;;;;;;7.97;7.10;;;34.10;35.00;;;;;;5072776;28;20412;-57
2023/06/21 09:58:23;;;;;;;9.40;8.50;;;34.20;35.00;;;;;;5072599;28;20430;-57
2023/06/21 10:00:49;;;;;;;10.70;8.50;;;34.30;34.60;;;;;;5072468;28;20626;-54
2023/06/21 10:03:15;;;;;;;8.90;8.00;;;34.30;34.70;;;;;;5072322;28;20440;-54
2023/06/21 10:06:02;;;;;;;8.67;7.77;;;34.30;34.10;;;;;;5072239;28;20455;-56
2023/06/21 10:08:36;;;;;;;8.40;7.60;;;34.40;34.20;;;;;;5072286;28;20194;-56
2023/06/21 10:11:03;;;;;;;7.93;7.23;;;34.40;33.50;;;;;;5072422;28;20385;-54
2023/06/21 10:13:30;;;;;;;9.90;7.60;;;34.40;32.90;;;;;;5072223;28;20429;-56
2023/06/21 10:15:56;;;;;;;8.60;7.90;;;34.40;32.10;;;;;;5072267;28;20413;-56
2023/06/21 10:18:23;;;;;;;9.13;7.57;;;34.40;33.90;;;;;;5072113;28;20782;-53
2023/06/21 10:20:56;;;;;;;8.37;7.50;;;34.40;34.40;;;;;;5072014;28;20420;-57
2023/06/21 10:23:25;;;;;;;11.00;7.30;;;34.40;34.30;;;;;;5072267;28;20408;-54
2023/06/21 10:25:53;;;;;;;10.80;8.13;;;34.50;34.00;;;;;;5071989;28;20464;-54
2023/06/21 10:28:22;;;;;;;8.97;8.17;;;34.50;33.40;;;;;;5070771;28;20446;-57
2023/06/21 10:30:53;;;;;;;9.67;8.73;;;34.60;33.70;;;;;;5071798;28;20421;-54
2023/06/21 10:33:20;;;;;;;9.40;8.60;;;34.60;31.60;;;;;;5072266;28;20409;-54
2023/06/21 10:35:49;;;;;;;9.80;8.83;;;34.60;33.40;;;;;;5072236;28;20427;-56
2023/06/21 10:38:37;;;;;;;12.47;8.40;;;34.70;32.20;;;;;;5072192;28;20486;-54
2023/06/21 10:41:05;;;;;;;8.83;7.93;;;34.80;32.90;;;;;;5071804;28;20403;-57
2023/06/21 10:43:32;;;;;;;8.57;7.77;;;34.90;30.20;;;;;;5071923;28;21012;-54
2023/06/21 10:45:58;;;;;;;10.97;8.63;;;34.80;31.90;;;;;;5071814;28;20454;-54
2023/06/21 10:48:26;;;;;;;9.57;8.30;;;34.80;30.00;;;;;;5071976;28;20426;-57
2023/06/21 10:50:52;;;;;;;13.80;8.97;;;34.70;31.70;;;;;;5071991;28;20500;-54
2023/06/21 10:53:19;;;;;;;9.70;8.70;;;34.60;32.00;;;;;;5071998;28;20778;-54
2023/06/21 10:55:46;;;;;;;8.83;8.03;;;34.70;31.80;;;;;;5071840;28;20414;-56
2023/06/21 10:58:13;;;;;;;11.47;9.80;;;34.60;32.50;;;;;;5071951;28;20466;-54
2023/06/21 11:00:42;;;;;;;9.53;8.57;;;34.60;32.60;;;;;;5071529;28;21006;-59
2023/06/21 11:03:12;;;;;;;8.47;7.43;;;34.60;32.90;;;;;;5074470;28;20772;-56
2023/06/21 11:05:39;;;;;;;9.90;8.27;;;34.70;34.10;;;;;;5075715;28;20504;-54
2023/06/21 11:08:06;;;;;;;13.73;8.37;;;34.80;33.20;;;;;;5075722;28;20859;-55
2023/06/21 11:10:49;;;;;;;14.53;8.40;;;34.80;33.20;;;;;;5075556;28;20444;-57
2023/06/21 11:13:35;;;;;;;8.13;7.33;;;34.90;32.80;;;;;;5075605;28;20921;-54
2023/06/21 11:16:17;;;;;;;9.00;8.17;;;34.90;31.60;;;;;;5075721;28;20445;-55
2023/06/21 11:18:55;;;;;;;9.20;8.30;;;35.00;31.60;;;;;;5075527;28;20433;-57
2023/06/21 11:21:41;;;;;;;8.30;7.50;;;35.00;33.10;;;;;;5075604;28;20849;-55
2023/06/21 11:24:11;;;;;;;8.03;7.33;;;35.20;33.10;;;;;;5075485;28;20409;-55
2023/06/21 11:26:57;;;;;;;9.20;8.40;;;35.30;33.40;;;;;;5075447;28;20445;-54
2023/06/21 11:29:41;;;;;;;12.00;9.50;;;35.40;32.10;;;;;;5075278;28;20494;-57
2023/06/21 11:32:11;;;;;;;8.20;7.50;;;35.50;32.60;;;;;;5075293;28;20410;-54
2023/06/21 11:34:49;;;;;;;8.07;7.37;;;35.50;32.70;;;;;;5075590;28;20406;-55
2023/06/21 11:37:33;;;;;;;9.83;8.93;;;35.50;31.90;;;;;;5075307;28;20383;-57
2023/06/21 11:40:01;;;;;;;8.80;7.93;;;35.50;30.50;;;;;;5075152;28;20464;-55
2023/06/21 11:42:29;;;;;;;9.23;8.23;;;35.40;31.20;;;;;;5075370;28;20406;-57
2023/06/21 11:44:55;;;;;;;10.30;7.37;;;35.40;32.80;;;;;;5075077;28;20955;-54
2023/06/21 11:47:21;;;;;;;8.73;7.73;;;35.50;31.60;;;;;;5074989;28;20462;-54
2023/06/21 11:49:49;;;;;;;9.03;8.13;;;35.60;31.40;;;;;;5074691;28;20926;-58
2023/06/21 11:52:17;;;;;;;9.07;8.10;;;35.60;32.00;;;;;;5074896;28;20238;-56
2023/06/21 11:54:42;;;;;;;9.40;8.60;;;35.60;30.80;;;;;;5075203;28;20407;-56
2023/06/21 11:57:09;;;;;;;9.53;8.17;;;35.50;30.80;;;;;;5074894;28;20402;-57
2023/06/21 11:59:36;;;;;;;9.30;8.47;;;35.50;32.40;;;;;;5074787;28;20668;-58
2023/06/21 12:02:12;;;;;;;8.50;7.70;;;35.50;32.00;;;;;;5074689;28;20414;-55
2023/06/21 12:04:43;;;;;;;9.97;9.00;;;35.50;32.00;;;;;;5074707;28;20882;-57
2023/06/21 12:07:10;;;;;;;11.23;8.27;;;35.40;31.10;;;;;;5073478;28;20465;-56
2023/06/21 12:09:37;;;;;;;8.40;7.60;;;35.40;31.10;;;;;;5068502;28;20464;-55
2023/06/21 12:12:06;;;;;;;9.67;8.30;;;35.20;32.30;;;;;;5072693;28;20414;-57
2023/06/21 12:14:32;;;;;;;8.27;7.57;;;35.10;32.10;;;;;;5073218;28;20406;-54
2023/06/21 12:17:00;;;;;;;7.97;7.27;;;35.10;33.10;;;;;;5074419;28;20413;-54
2023/06/21 12:19:25;;;;;;;8.17;7.30;;;35.10;33.00;;;;;;5074449;28;20253;-56
2023/06/21 12:21:58;;;;;;;8.10;7.37;;;35.30;32.00;;;;;;5074641;28;20823;-54
2023/06/21 12:24:32;;;;;;;7.33;6.13;;;35.40;33.30;;;;;;5074433;28;20506;-54
2023/06/21 12:27:00;;;;;;;8.70;7.80;;;35.50;31.10;;;;;;5074317;28;20483;-54
2023/06/21 12:29:27;;;;;;;7.70;7.00;;;35.50;32.20;;;;;;5074071;28;20437;-56
2023/06/21 12:31:56;;;;;;;8.87;7.60;;;35.60;31.80;;;;;;5074148;28;20407;-56
2023/06/21 12:34:24;;;;;;;7.93;7.13;;;35.60;31.70;;;;;;5074429;28;20403;-55
2023/06/21 12:36:51;;;;;;;9.57;7.87;;;35.80;32.40;;;;;;5074308;28;20488;-54
2023/06/21 12:39:18;;;;;;;8.57;7.77;;;35.90;30.10;;;;;;5073871;28;20436;-56
2023/06/21 12:41:44;;;;;;;7.63;6.67;;;35.90;31.10;;;;;;5073948;28;20446;-54
2023/06/21 12:44:26;;;;;;;7.20;6.60;;;35.90;31.60;;;;;;5073949;28;20439;-56